createdAt,value
2022-10-04T00:09:07.894Z,15.50
2022-10-04T00:29:07.882Z,15.43
2022-10-04T00:49:07.880Z,15.18
2022-10-04T01:09:07.851Z,15.25
2022-10-04T01:29:07.833Z,15.31
2022-10-04T01:49:07.822Z,15.31
2022-10-04T02:09:07.812Z,15.31
2022-10-04T02:29:07.790Z,15.43
2022-10-04T02:49:07.775Z,15.18
2022-10-04T03:09:07.755Z,15.18
2022-10-04T03:29:07.744Z,15.18
2022-10-04T03:49:07.729Z,15.31
2022-10-04T04:09:07.715Z,15.25
2022-10-04T04:29:07.703Z,15.25
2022-10-04T04:49:07.679Z,15.12
2022-10-04T05:09:07.670Z,15.12
2022-10-04T05:29:07.660Z,15.12
2022-10-04T05:49:07.627Z,15.31
2022-10-04T06:09:07.627Z,15.12
2022-10-04T06:29:07.620Z,15.25
2022-10-04T06:49:07.606Z,15.12
2022-10-04T07:09:07.588Z,15.37
2022-10-04T07:29:07.809Z,15.12
2022-10-04T07:49:07.526Z,15.18
2022-10-04T08:09:07.535Z,15.12
2022-10-04T08:29:07.535Z,15.43
2022-10-04T08:49:07.493Z,15.25
2022-10-04T09:09:07.478Z,15.37
2022-10-04T09:29:07.505Z,15.31
2022-10-04T09:49:07.425Z,15.50
2022-10-04T10:09:07.382Z,15.25
2022-10-04T10:29:07.356Z,15.43
2022-10-04T10:49:07.343Z,15.37
2022-10-04T11:09:07.334Z,15.50
2022-10-04T11:29:07.301Z,15.81
2022-10-04T11:49:07.288Z,15.50
2022-10-04T12:09:07.279Z,15.62
2022-10-04T12:29:07.225Z,15.68
2022-10-04T12:49:07.253Z,15.87
2022-10-04T13:09:07.238Z,15.93
2022-10-04T13:29:07.207Z,15.93
2022-10-04T13:49:07.129Z,15.87
2022-10-04T14:09:07.104Z,15.87
2022-10-04T14:29:07.064Z,15.87
2022-10-04T14:49:07.081Z,15.93
2022-10-04T15:09:07.020Z,15.81
2022-10-04T15:29:06.991Z,15.81
2022-10-04T15:49:07.009Z,15.93
2022-10-04T16:09:06.944Z,15.81
2022-10-04T16:29:06.931Z,15.75
2022-10-04T16:49:06.953Z,15.81
2022-10-04T17:09:06.864Z,15.87
2022-10-04T17:29:06.863Z,15.81
2022-10-04T17:49:06.829Z,15.68
2022-10-04T18:09:06.808Z,15.68
2022-10-04T18:29:06.820Z,15.50
2022-10-04T18:49:06.776Z,15.43
2022-10-04T19:09:06.731Z,15.43
2022-10-04T19:29:06.717Z,15.56
2022-10-04T19:49:06.742Z,15.50
2022-10-04T20:09:06.659Z,15.31
2022-10-04T20:29:06.637Z,15.43
2022-10-04T20:49:06.615Z,15.31
2022-10-04T21:09:06.606Z,15.18
2022-10-04T21:29:06.588Z,15.25
2022-10-04T21:49:06.551Z,15.37
2022-10-04T22:09:06.537Z,15.43
2022-10-04T22:29:06.505Z,15.18
2022-10-04T22:49:06.492Z,15.12
2022-10-04T23:09:06.473Z,15.25
2022-10-04T23:29:06.445Z,15.25
2022-10-04T23:49:06.443Z,15.25
